createdAt,value
2017-02-05T00:00:19.214Z,21.94
2017-02-05T00:00:47.203Z,21.97
2017-02-05T00:01:15.268Z,22.04
2017-02-05T00:01:43.173Z,21.92
2017-02-05T00:02:11.189Z,21.94
2017-02-05T00:02:39.063Z,21.97
2017-02-05T00:03:07.270Z,21.99
2017-02-05T00:03:35.325Z,22
2017-02-05T00:04:03.478Z,21.93
2017-02-05T00:04:31.581Z,21.97
2017-02-05T00:04:59.759Z,21.97
2017-02-05T00:05:28.306Z,21.86
2017-02-05T00:05:56.441Z,21.99
2017-02-05T00:06:24.712Z,21.96
2017-02-05T00:06:52.915Z,21.99
2017-02-05T00:07:21.198Z,22
2017-02-05T00:07:49.448Z,22
2017-02-05T00:08:17.792Z,21.93
2017-02-05T00:08:45.910Z,21.9
2017-02-05T00:09:14.017Z,21.86
2017-02-05T00:09:42.082Z,21.86
2017-02-05T00:10:10.337Z,21.93
2017-02-05T00:10:38.677Z,21.83
2017-02-05T00:11:06.918Z,21.9
2017-02-05T00:11:35.116Z,21.89
2017-02-05T00:12:03.251Z,21.89
2017-02-05T00:12:31.264Z,21.9
2017-02-05T00:12:59.351Z,21.86
2017-02-05T00:13:27.417Z,21.93
2017-02-05T00:13:55.653Z,21.86
2017-02-05T00:14:23.747Z,21.9
2017-02-05T00:14:52.004Z,21.86
2017-02-05T00:15:20.176Z,21.9
2017-02-05T00:15:48.719Z,21.78
2017-02-05T00:16:16.848Z,21.9
2017-02-05T00:16:44.997Z,21.83
2017-02-05T00:17:13.093Z,21.82
2017-02-05T00:17:41.259Z,21.86
2017-02-05T00:18:09.493Z,21.86
2017-02-05T00:18:37.728Z,21.78
2017-02-05T00:19:05.709Z,21.8
2017-02-05T00:19:33.538Z,21.86
2017-02-05T00:20:01.700Z,21.76
2017-02-05T00:20:30.127Z,21.76
2017-02-05T00:20:58.248Z,21.78
2017-02-05T00:21:26.369Z,21.86
2017-02-05T00:21:54.550Z,21.78
2017-02-05T00:22:22.494Z,21.7
2017-02-05T00:22:50.791Z,21.7
2017-02-05T00:23:18.899Z,21.74
2017-02-05T00:23:47.000Z,21.73
2017-02-05T00:24:15.238Z,21.73
2017-02-05T00:24:43.404Z,21.74
2017-02-05T00:25:11.639Z,21.78
2017-02-05T00:25:39.809Z,21.74
2017-02-05T00:26:07.970Z,21.64
2017-02-05T00:26:36.009Z,21.68
2017-02-05T00:27:04.152Z,21.74
2017-02-05T00:27:32.249Z,21.71
2017-02-05T00:28:00.238Z,21.77
2017-02-05T00:28:28.378Z,21.7
2017-02-05T00:28:56.635Z,21.74
2017-02-05T00:29:24.720Z,21.73
2017-02-05T00:29:52.893Z,21.66
2017-02-05T00:30:21.149Z,21.68
2017-02-05T00:30:49.554Z,21.76
2017-02-05T00:31:17.672Z,21.67
2017-02-05T00:31:45.794Z,21.73
2017-02-05T00:32:13.853Z,21.67
2017-02-05T00:32:41.894Z,21.56
2017-02-05T00:33:09.867Z,21.66
2017-02-05T00:33:37.993Z,21.68
2017-02-05T00:34:06.141Z,21.67
2017-02-05T00:34:34.156Z,21.77
2017-02-05T00:35:02.467Z,21.74
2017-02-05T00:35:30.725Z,21.78
2017-02-05T00:35:58.958Z,21.7
2017-02-05T00:36:27.110Z,21.76
2017-02-05T00:36:55.319Z,21.74
2017-02-05T00:37:23.456Z,21.77
2017-02-05T00:37:51.409Z,21.76
2017-02-05T00:38:19.653Z,21.7
2017-02-05T00:38:47.813Z,21.68
2017-02-05T00:39:16.023Z,21.71
2017-02-05T00:39:44.087Z,21.7
2017-02-05T00:40:12.346Z,21.68
2017-02-05T00:40:40.402Z,21.71
2017-02-05T00:41:08.502Z,21.64
2017-02-05T00:41:36.597Z,21.61
2017-02-05T00:42:04.690Z,21.58
2017-02-05T00:42:32.696Z,21.7
2017-02-05T00:43:00.782Z,21.61
2017-02-05T00:43:28.997Z,21.71
2017-02-05T00:43:57.082Z,21.61
2017-02-05T00:44:25.120Z,21.61
2017-02-05T00:44:53.161Z,21.67
2017-02-05T00:45:21.341Z,21.67
2017-02-05T00:45:49.679Z,21.67
2017-02-05T00:46:17.744Z,21.68
2017-02-05T00:46:45.980Z,21.71
2017-02-05T00:47:14.302Z,21.68
2017-02-05T00:47:42.520Z,21.71
2017-02-05T00:48:10.491Z,21.77
2017-02-05T00:48:38.703Z,21.73
2017-02-05T00:49:06.887Z,21.76
2017-02-05T00:49:34.881Z,21.7
2017-02-05T00:50:02.978Z,21.77
2017-02-05T00:50:31.048Z,21.71
2017-02-05T00:50:59.500Z,21.77
2017-02-05T00:51:27.482Z,21.78
2017-02-05T00:51:55.508Z,21.8
2017-02-05T00:52:23.796Z,21.89
2017-02-05T00:52:51.950Z,21.85
2017-02-05T00:53:20.093Z,21.85
2017-02-05T00:53:48.246Z,21.8
2017-02-05T00:54:16.358Z,21.9
2017-02-05T00:54:44.511Z,21.83
2017-02-05T00:55:12.767Z,21.85
2017-02-05T00:55:40.935Z,21.92
2017-02-05T00:56:09.177Z,21.77
2017-02-05T00:56:37.327Z,21.78
2017-02-05T00:57:05.499Z,21.83
2017-02-05T00:57:33.676Z,21.93
2017-02-05T00:58:01.855Z,21.85
2017-02-05T00:58:29.798Z,21.83
2017-02-05T00:58:57.958Z,21.92
2017-02-05T00:59:25.894Z,21.85
2017-02-05T00:59:54.122Z,21.85
2017-02-05T01:00:22.135Z,21.85
2017-02-05T01:00:50.316Z,21.86
2017-02-05T01:01:18.692Z,21.9
2017-02-05T01:01:46.735Z,21.93
2017-02-05T01:02:14.968Z,21.8
2017-02-05T01:02:43.193Z,21.85
2017-02-05T01:03:11.146Z,21.82
2017-02-05T01:03:39.293Z,21.86
2017-02-05T01:04:07.381Z,21.86
2017-02-05T01:04:35.609Z,21.86
2017-02-05T01:05:03.662Z,21.77
2017-02-05T01:05:31.807Z,21.77
2017-02-05T01:06:00.312Z,21.83
2017-02-05T01:06:28.376Z,21.77
2017-02-05T01:06:56.419Z,21.73
2017-02-05T01:07:24.401Z,21.73
2017-02-05T01:07:52.655Z,21.67
2017-02-05T01:08:20.808Z,21.82
2017-02-05T01:08:48.965Z,21.7
2017-02-05T01:09:17.229Z,21.74
2017-02-05T01:09:45.342Z,21.67
2017-02-05T01:10:13.538Z,21.67
2017-02-05T01:10:41.792Z,21.7
2017-02-05T01:11:09.924Z,21.67
2017-02-05T01:11:37.994Z,21.67
2017-02-05T01:12:06.064Z,21.67
2017-02-05T01:12:34.134Z,21.76
2017-02-05T01:13:02.401Z,21.71
2017-02-05T01:13:30.670Z,21.71
2017-02-05T01:13:58.906Z,21.73
2017-02-05T01:14:27.049Z,21.77
2017-02-05T01:14:55.281Z,21.71
2017-02-05T01:15:23.277Z,21.71
2017-02-05T01:15:51.442Z,21.73
2017-02-05T01:16:19.812Z,21.77
2017-02-05T01:16:48.039Z,21.74
2017-02-05T01:17:16.144Z,21.73
2017-02-05T01:17:44.278Z,21.7
2017-02-05T01:18:12.328Z,21.74
2017-02-05T01:18:40.477Z,21.7
2017-02-05T01:19:08.637Z,21.76
2017-02-05T01:19:36.938Z,21.76
2017-02-05T01:20:05.110Z,21.73
2017-02-05T01:20:33.467Z,21.74
2017-02-05T01:21:01.591Z,21.74
2017-02-05T01:21:29.593Z,21.66
2017-02-05T01:21:57.717Z,21.78
2017-02-05T01:22:25.763Z,21.76
2017-02-05T01:22:53.920Z,21.73
2017-02-05T01:23:22.082Z,21.76
2017-02-05T01:23:50.256Z,21.67
2017-02-05T01:24:18.226Z,21.73
2017-02-05T01:24:46.296Z,21.74
2017-02-05T01:25:14.460Z,21.82
2017-02-05T01:25:42.701Z,21.68
2017-02-05T01:26:11.113Z,21.76
2017-02-05T01:26:39.182Z,21.77
2017-02-05T01:27:07.301Z,21.73
2017-02-05T01:27:35.409Z,21.71
2017-02-05T01:28:03.536Z,21.67
2017-02-05T01:28:31.592Z,21.58
2017-02-05T01:28:59.550Z,21.53
2017-02-05T01:29:27.673Z,21.67
2017-02-05T01:29:55.843Z,21.62
2017-02-05T01:30:23.990Z,21.59
2017-02-05T01:30:52.132Z,21.7
2017-02-05T01:31:20.612Z,21.64
2017-02-05T01:31:48.790Z,21.53
2017-02-05T01:32:16.740Z,21.59
2017-02-05T01:32:44.872Z,21.53
2017-02-05T01:33:13.134Z,21.61
2017-02-05T01:33:41.131Z,21.58
2017-02-05T01:34:09.348Z,21.58
2017-02-05T01:34:37.488Z,21.68
2017-02-05T01:35:05.562Z,21.53
2017-02-05T01:35:33.803Z,21.58
2017-02-05T01:36:01.912Z,21.61
2017-02-05T01:36:30.206Z,21.59
2017-02-05T01:36:58.347Z,21.7
2017-02-05T01:37:26.519Z,21.58
2017-02-05T01:37:54.807Z,21.67
2017-02-05T01:38:22.944Z,21.68
2017-02-05T01:38:50.949Z,21.61
2017-02-05T01:39:19.095Z,21.58
2017-02-05T01:39:47.247Z,21.58
2017-02-05T01:40:15.404Z,21.71
2017-02-05T01:40:43.646Z,21.73
2017-02-05T01:41:11.678Z,21.68
2017-02-05T01:41:39.704Z,21.59
2017-02-05T01:42:07.847Z,21.7
2017-02-05T01:42:35.994Z,21.7
2017-02-05T01:43:04.274Z,21.7
2017-02-05T01:43:32.403Z,21.71
2017-02-05T01:44:00.574Z,21.53
2017-02-05T01:44:28.688Z,21.55
2017-02-05T01:44:56.819Z,21.58
2017-02-05T01:45:24.964Z,21.53
2017-02-05T01:45:52.999Z,21.58
2017-02-05T01:46:21.313Z,21.61
2017-02-05T01:46:49.357Z,21.61
2017-02-05T01:47:17.528Z,21.53
2017-02-05T01:47:45.564Z,21.56
2017-02-05T01:48:13.801Z,21.61
2017-02-05T01:48:41.861Z,21.53
2017-02-05T01:49:09.947Z,21.61
2017-02-05T01:49:38.044Z,21.55
2017-02-05T01:50:06.293Z,21.59
2017-02-05T01:50:34.544Z,21.59
2017-02-05T01:51:02.687Z,21.53
2017-02-05T01:51:31.101Z,21.59
2017-02-05T01:51:59.251Z,21.62
2017-02-05T01:52:27.392Z,21.59
2017-02-05T01:52:55.671Z,21.61
2017-02-05T01:53:23.794Z,21.71
2017-02-05T01:53:51.931Z,21.62
2017-02-05T01:54:20.045Z,21.67
2017-02-05T01:54:48.192Z,21.67
2017-02-05T01:55:16.469Z,21.66
2017-02-05T01:55:44.521Z,21.67
2017-02-05T01:56:12.689Z,21.67
2017-02-05T01:56:41.225Z,21.66
2017-02-05T01:57:09.284Z,21.59
2017-02-05T01:57:37.253Z,21.71
2017-02-05T01:58:05.320Z,21.59
2017-02-05T01:58:33.542Z,21.58
2017-02-05T01:59:01.685Z,21.55
2017-02-05T01:59:29.814Z,21.59
2017-02-05T01:59:57.878Z,21.53
2017-02-05T02:00:26.024Z,21.59
2017-02-05T02:00:53.978Z,21.53
2017-02-05T02:01:22.137Z,21.59
2017-02-05T02:01:50.489Z,21.67
2017-02-05T02:02:18.658Z,21.56
2017-02-05T02:02:46.925Z,21.58
2017-02-05T02:03:15.100Z,21.48
2017-02-05T02:03:43.311Z,21.55
2017-02-05T02:04:11.273Z,21.53
2017-02-05T02:04:39.430Z,21.49
2017-02-05T02:05:07.581Z,21.48
2017-02-05T02:05:35.683Z,21.43
2017-02-05T02:06:03.850Z,21.45
2017-02-05T02:06:32.314Z,21.41
2017-02-05T02:07:00.567Z,21.46
2017-02-05T02:07:28.740Z,21.46
2017-02-05T02:07:56.870Z,21.49
2017-02-05T02:08:24.972Z,21.43
2017-02-05T02:08:53.044Z,21.46
2017-02-05T02:09:21.197Z,21.41
2017-02-05T02:09:49.347Z,21.41
2017-02-05T02:10:17.329Z,21.43
2017-02-05T02:10:45.555Z,21.33
2017-02-05T02:11:13.636Z,21.36
2017-02-05T02:11:42.056Z,21.38
2017-02-05T02:12:10.145Z,21.46
2017-02-05T02:12:38.134Z,21.31
2017-02-05T02:13:06.239Z,21.38
2017-02-05T02:13:34.174Z,21.38
2017-02-05T02:14:02.270Z,21.4
2017-02-05T02:14:30.403Z,21.34
2017-02-05T02:14:58.614Z,21.3
2017-02-05T02:15:26.861Z,21.36
2017-02-05T02:15:54.701Z,21.33
2017-02-05T02:16:22.918Z,21.33
2017-02-05T02:16:51.364Z,21.31
2017-02-05T02:17:19.511Z,21.31
2017-02-05T02:17:47.579Z,21.23
2017-02-05T02:18:15.728Z,21.25
2017-02-05T02:18:43.762Z,21.31
2017-02-05T02:19:11.918Z,21.12
2017-02-05T02:19:40.202Z,21.18
2017-02-05T02:20:08.273Z,21.22
2017-02-05T02:20:36.304Z,21.15
2017-02-05T02:21:04.491Z,21.15
2017-02-05T02:21:32.280Z,21.19
2017-02-05T02:22:00.561Z,21.15
2017-02-05T02:22:28.754Z,21.11
2017-02-05T02:22:57.024Z,20.98
2017-02-05T02:23:25.182Z,21.06
2017-02-05T02:23:53.330Z,20.98
2017-02-05T02:24:21.459Z,21.03
2017-02-05T02:24:49.430Z,21.04
2017-02-05T02:25:17.579Z,20.94
2017-02-05T02:25:45.800Z,21
2017-02-05T02:26:13.984Z,20.96
2017-02-05T02:26:42.049Z,20.94
2017-02-05T02:27:10.445Z,20.93
2017-02-05T02:27:38.684Z,21
2017-02-05T02:28:06.744Z,20.97
2017-02-05T02:28:34.893Z,20.94
2017-02-05T02:29:02.928Z,21
2017-02-05T02:29:30.935Z,20.96
2017-02-05T02:29:59.002Z,20.96
2017-02-05T02:30:27.007Z,20.96
2017-02-05T02:30:55.134Z,20.98
2017-02-05T02:31:23.330Z,21.01
2017-02-05T02:31:51.681Z,20.98
2017-02-05T02:32:19.725Z,21.01
2017-02-05T02:32:47.829Z,20.96
2017-02-05T02:33:16.130Z,21
2017-02-05T02:33:44.525Z,21.01
2017-02-05T02:34:12.598Z,20.91
2017-02-05T02:34:40.598Z,20.98
2017-02-05T02:35:08.659Z,20.96
2017-02-05T02:35:36.670Z,20.96
2017-02-05T02:36:04.896Z,21
2017-02-05T02:36:32.899Z,20.97
2017-02-05T02:37:01.134Z,21.04
2017-02-05T02:37:29.098Z,21.04
2017-02-05T02:37:57.146Z,21.01
2017-02-05T02:38:25.420Z,21.04
2017-02-05T02:38:53.733Z,21.04
2017-02-05T02:39:21.876Z,20.97
2017-02-05T02:39:50.115Z,21.01
2017-02-05T02:40:18.158Z,21.03
2017-02-05T02:40:46.333Z,21
2017-02-05T02:41:14.657Z,21.01
2017-02-05T02:41:42.776Z,21.04
2017-02-05T02:42:11.136Z,21.04
2017-02-05T02:42:39.272Z,21.03
2017-02-05T02:43:07.547Z,21.01
2017-02-05T02:43:35.795Z,21
2017-02-05T02:44:04.075Z,21.06
2017-02-05T02:44:32.208Z,21.01
2017-02-05T02:45:00.213Z,20.98
2017-02-05T02:45:28.354Z,21.06
2017-02-05T02:45:56.428Z,21.06
2017-02-05T02:46:24.578Z,21
2017-02-05T02:46:52.671Z,21.03
2017-02-05T02:47:21.127Z,21.04
2017-02-05T02:47:49.221Z,21.03
2017-02-05T02:48:17.338Z,21
2017-02-05T02:48:45.459Z,21
2017-02-05T02:49:13.677Z,20.96
2017-02-05T02:49:41.802Z,21.01
2017-02-05T02:50:10.009Z,20.93
2017-02-05T02:50:37.973Z,20.83
2017-02-05T02:51:06.135Z,20.96
2017-02-05T02:51:34.217Z,20.88
2017-02-05T02:52:02.277Z,20.88
2017-02-05T02:52:30.651Z,20.91
2017-02-05T02:52:58.845Z,20.9
2017-02-05T02:53:27.029Z,20.88
2017-02-05T02:53:55.077Z,20.88
2017-02-05T02:54:23.076Z,20.86
2017-02-05T02:54:51.224Z,20.85
2017-02-05T02:55:19.457Z,20.82
2017-02-05T02:55:47.598Z,20.88
2017-02-05T02:56:15.755Z,20.91
2017-02-05T02:56:43.775Z,20.83
2017-02-05T02:57:12.166Z,20.88
2017-02-05T02:57:40.129Z,20.83
2017-02-05T02:58:08.371Z,20.79
2017-02-05T02:58:36.508Z,20.86
2017-02-05T02:59:04.689Z,20.83
2017-02-05T02:59:32.859Z,20.91
2017-02-05T03:00:00.964Z,20.81
2017-02-05T03:00:29.149Z,20.85
2017-02-05T03:00:57.276Z,20.83
2017-02-05T03:01:25.314Z,20.86
2017-02-05T03:01:53.493Z,20.88
2017-02-05T03:02:21.604Z,20.85
2017-02-05T03:02:49.821Z,20.83
2017-02-05T03:03:17.979Z,20.79
2017-02-05T03:03:46.128Z,20.79
2017-02-05T03:04:14.184Z,20.81
2017-02-05T03:04:42.354Z,20.82
2017-02-05T03:05:10.572Z,20.79
2017-02-05T03:05:38.787Z,20.82
2017-02-05T03:06:07.027Z,20.79
2017-02-05T03:06:35.291Z,20.82
2017-02-05T03:07:03.514Z,20.79
2017-02-05T03:07:31.915Z,20.78
2017-02-05T03:08:00.078Z,20.74
2017-02-05T03:08:28.129Z,20.78
2017-02-05T03:08:56.305Z,20.76
2017-02-05T03:09:24.543Z,20.79
2017-02-05T03:09:52.702Z,20.67
2017-02-05T03:10:20.919Z,20.67
2017-02-05T03:10:48.982Z,20.67
2017-02-05T03:11:16.921Z,20.64
2017-02-05T03:11:45.043Z,20.67
2017-02-05T03:12:13.216Z,20.66
2017-02-05T03:12:41.629Z,20.71
2017-02-05T03:13:09.772Z,20.68
2017-02-05T03:13:37.905Z,20.6
2017-02-05T03:14:06.144Z,20.68
2017-02-05T03:14:34.114Z,20.67
2017-02-05T03:15:02.243Z,20.72
2017-02-05T03:15:30.483Z,20.71
2017-02-05T03:15:58.563Z,20.71
2017-02-05T03:16:26.584Z,20.67
2017-02-05T03:16:54.722Z,20.66
2017-02-05T03:17:22.861Z,20.64
2017-02-05T03:17:51.277Z,20.71
2017-02-05T03:18:19.350Z,20.6
2017-02-05T03:18:47.592Z,20.64
2017-02-05T03:19:15.614Z,20.56
2017-02-05T03:19:43.767Z,20.6
2017-02-05T03:20:11.858Z,20.57
2017-02-05T03:20:39.885Z,20.64
2017-02-05T03:21:07.936Z,20.57
2017-02-05T03:21:36.218Z,20.54
2017-02-05T03:22:04.286Z,20.57
2017-02-05T03:22:32.541Z,20.49
2017-02-05T03:23:00.593Z,20.51
2017-02-05T03:23:28.714Z,20.57
2017-02-05T03:23:57.012Z,20.63
2017-02-05T03:24:25.073Z,20.48
2017-02-05T03:24:53.334Z,20.53
2017-02-05T03:25:21.551Z,20.44
2017-02-05T03:25:49.592Z,20.49
2017-02-05T03:26:17.775Z,20.44
2017-02-05T03:26:45.853Z,20.49
2017-02-05T03:27:14.186Z,20.37
2017-02-05T03:27:42.726Z,20.34
2017-02-05T03:28:10.866Z,20.46
2017-02-05T03:28:39.128Z,20.34
2017-02-05T03:29:07.081Z,20.38
2017-02-05T03:29:35.173Z,20.34
2017-02-05T03:30:03.430Z,20.23
2017-02-05T03:30:31.384Z,20.37
2017-02-05T03:30:59.385Z,20.2
2017-02-05T03:31:27.524Z,20.29
2017-02-05T03:31:55.795Z,20.3
2017-02-05T03:32:23.983Z,20.23
2017-02-05T03:32:52.143Z,20.27
2017-02-05T03:33:20.419Z,20.23
2017-02-05T03:33:48.668Z,20.23
2017-02-05T03:34:16.920Z,20.16
2017-02-05T03:34:44.964Z,20.18
2017-02-05T03:35:13.092Z,20.15
2017-02-05T03:35:41.057Z,20.19
2017-02-05T03:36:09.110Z,20.12
2017-02-05T03:36:37.313Z,20.19
2017-02-05T03:37:05.329Z,20.18
2017-02-05T03:37:33.526Z,20.22
2017-02-05T03:38:01.799Z,20.23
2017-02-05T03:38:29.929Z,20.19
2017-02-05T03:38:57.993Z,20.25
2017-02-05T03:39:25.999Z,20.22
2017-02-05T03:39:54.088Z,20.29
2017-02-05T03:40:22.167Z,20.26
2017-02-05T03:40:50.320Z,20.22
2017-02-05T03:41:18.434Z,20.29
2017-02-05T03:41:46.289Z,20.26
2017-02-05T03:42:14.551Z,20.32
2017-02-05T03:42:42.594Z,20.34
2017-02-05T03:43:11.068Z,20.29
2017-02-05T03:43:39.313Z,20.27
2017-02-05T03:44:07.473Z,20.32
2017-02-05T03:44:35.613Z,20.27
2017-02-05T03:45:03.661Z,20.32
2017-02-05T03:45:31.695Z,20.27
2017-02-05T03:45:59.839Z,20.34
2017-02-05T03:46:27.995Z,20.29
2017-02-05T03:46:56.013Z,20.34
2017-02-05T03:47:24.058Z,20.29
2017-02-05T03:47:52.279Z,20.37
2017-02-05T03:48:20.360Z,20.37
2017-02-05T03:48:48.346Z,20.25
2017-02-05T03:49:16.527Z,20.34
2017-02-05T03:49:44.705Z,20.34
2017-02-05T03:50:12.714Z,20.37
2017-02-05T03:50:40.877Z,20.29
2017-02-05T03:51:08.809Z,20.29
2017-02-05T03:51:36.961Z,20.4
2017-02-05T03:52:05.121Z,20.3
2017-02-05T03:52:33.299Z,20.32
2017-02-05T03:53:01.440Z,20.37
2017-02-05T03:53:29.519Z,20.38
2017-02-05T03:53:57.770Z,20.44
2017-02-05T03:54:25.881Z,20.44
2017-02-05T03:54:54.014Z,20.46
2017-02-05T03:55:22.226Z,20.51
2017-02-05T03:55:50.293Z,20.54
2017-02-05T03:56:18.425Z,20.44
2017-02-05T03:56:46.504Z,20.53
2017-02-05T03:57:14.620Z,20.56
2017-02-05T03:57:42.819Z,20.54
2017-02-05T03:58:11.048Z,20.56
2017-02-05T03:58:39.210Z,20.57
2017-02-05T03:59:07.346Z,20.49
2017-02-05T03:59:35.583Z,20.51
2017-02-05T04:00:03.762Z,20.54
2017-02-05T04:00:31.833Z,20.57
2017-02-05T04:00:59.872Z,20.56
2017-02-05T04:01:27.939Z,20.56
2017-02-05T04:01:56.081Z,20.46
2017-02-05T04:02:24.240Z,20.41
2017-02-05T04:02:52.502Z,20.48
2017-02-05T04:03:20.988Z,20.44
2017-02-05T04:03:49.217Z,20.44
2017-02-05T04:04:17.486Z,20.48
2017-02-05T04:04:45.696Z,20.41
2017-02-05T04:05:13.779Z,20.48
2017-02-05T04:05:41.972Z,20.42
2017-02-05T04:06:10.104Z,20.48
2017-02-05T04:06:38.288Z,20.44
2017-02-05T04:07:06.325Z,20.46
2017-02-05T04:07:34.404Z,20.46
2017-02-05T04:08:02.537Z,20.42
2017-02-05T04:08:30.688Z,20.44
2017-02-05T04:08:58.739Z,20.51
2017-02-05T04:09:26.965Z,20.44
2017-02-05T04:09:55.148Z,20.46
2017-02-05T04:10:23.405Z,20.38
2017-02-05T04:10:51.716Z,20.44
2017-02-05T04:11:19.786Z,20.44
2017-02-05T04:11:48.054Z,20.34
2017-02-05T04:12:16.114Z,20.34
2017-02-05T04:12:44.235Z,20.3
2017-02-05T04:13:12.534Z,20.4
2017-02-05T04:13:40.724Z,20.41
2017-02-05T04:14:08.806Z,20.37
2017-02-05T04:14:36.901Z,20.3
2017-02-05T04:15:05.036Z,20.29
2017-02-05T04:15:33.169Z,20.41
2017-02-05T04:16:01.430Z,20.35
2017-02-05T04:16:29.629Z,20.4
2017-02-05T04:16:57.784Z,20.38
2017-02-05T04:17:26.064Z,20.42
2017-02-05T04:17:54.122Z,20.41
2017-02-05T04:18:22.469Z,20.34
2017-02-05T04:18:50.656Z,20.4
2017-02-05T04:19:18.873Z,20.35
2017-02-05T04:19:47.090Z,20.32
2017-02-05T04:20:15.294Z,20.4
2017-02-05T04:20:43.453Z,20.37
2017-02-05T04:21:11.657Z,20.42
2017-02-05T04:21:39.909Z,20.41
2017-02-05T04:22:08.130Z,20.38
2017-02-05T04:22:36.162Z,20.41
2017-02-05T04:23:04.212Z,20.34
2017-02-05T04:23:32.570Z,20.4
2017-02-05T04:24:00.728Z,20.4
2017-02-05T04:24:29.020Z,20.44
2017-02-05T04:24:57.237Z,20.46
2017-02-05T04:25:25.506Z,20.37
2017-02-05T04:25:53.718Z,20.44
2017-02-05T04:26:21.756Z,20.35
2017-02-05T04:26:49.894Z,20.38
2017-02-05T04:27:17.866Z,20.3
2017-02-05T04:27:46.001Z,20.34
2017-02-05T04:28:14.308Z,20.35
2017-02-05T04:28:42.330Z,20.37
2017-02-05T04:29:10.302Z,20.38
2017-02-05T04:29:38.552Z,20.34
2017-02-05T04:30:06.804Z,20.29
2017-02-05T04:30:34.865Z,20.26
2017-02-05T04:31:02.976Z,20.26
2017-02-05T04:31:31.055Z,20.26
2017-02-05T04:31:59.304Z,20.29
2017-02-05T04:32:27.322Z,20.22
2017-02-05T04:32:55.368Z,20.26
2017-02-05T04:33:23.869Z,20.27
2017-02-05T04:33:51.904Z,20.26
2017-02-05T04:34:19.943Z,20.25
2017-02-05T04:34:48.339Z,20.19
2017-02-05T04:35:16.696Z,20.25
2017-02-05T04:35:44.857Z,20.18
2017-02-05T04:36:13.202Z,20.18
2017-02-05T04:36:41.271Z,20.11
2017-02-05T04:37:09.578Z,20.2
2017-02-05T04:37:37.758Z,20.15
2017-02-05T04:38:05.852Z,20.11
2017-02-05T04:38:34.012Z,20.11
2017-02-05T04:39:01.971Z,20.19
2017-02-05T04:39:30.143Z,20.15
2017-02-05T04:39:58.296Z,20.16
2017-02-05T04:40:26.439Z,20.19
2017-02-05T04:40:54.624Z,20.18
2017-02-05T04:41:22.614Z,20.19
2017-02-05T04:41:50.684Z,20.08
2017-02-05T04:42:18.823Z,20.15
2017-02-05T04:42:47.040Z,20.12
2017-02-05T04:43:15.149Z,20.07
2017-02-05T04:43:43.399Z,20.11
2017-02-05T04:44:11.527Z,20.1
2017-02-05T04:44:39.715Z,20.04
2017-02-05T04:45:07.872Z,20.05
2017-02-05T04:45:36.165Z,20.01
2017-02-05T04:46:04.379Z,20
2017-02-05T04:46:32.632Z,20.05
2017-02-05T04:47:00.896Z,19.98
2017-02-05T04:47:29.088Z,20.01
2017-02-05T04:47:57.232Z,20
2017-02-05T04:48:25.337Z,20.01
2017-02-05T04:48:53.562Z,20.01
2017-02-05T04:49:21.785Z,20
2017-02-05T04:49:49.922Z,19.92
2017-02-05T04:50:17.959Z,19.9
2017-02-05T04:50:45.891Z,19.89
2017-02-05T04:51:14.167Z,19.82
2017-02-05T04:51:42.439Z,19.85
2017-02-05T04:52:10.672Z,19.82
2017-02-05T04:52:38.797Z,19.85
2017-02-05T04:53:06.896Z,19.93
2017-02-05T04:53:35.278Z,19.92
2017-02-05T04:54:03.450Z,19.97
2017-02-05T04:54:31.615Z,19.89
2017-02-05T04:54:59.750Z,19.95
2017-02-05T04:55:27.919Z,19.92
2017-02-05T04:55:56.158Z,19.89
2017-02-05T04:56:24.104Z,19.89
2017-02-05T04:56:52.270Z,19.87
2017-02-05T04:57:20.411Z,19.87
2017-02-05T04:57:48.540Z,19.79
2017-02-05T04:58:16.713Z,19.9
2017-02-05T04:58:44.920Z,19.79
2017-02-05T04:59:13.132Z,19.83
2017-02-05T04:59:41.332Z,19.8
2017-02-05T05:00:09.291Z,19.82
2017-02-05T05:00:37.360Z,19.79
2017-02-05T05:01:05.539Z,19.78
2017-02-05T05:01:33.808Z,19.79
2017-02-05T05:02:02.019Z,19.86
2017-02-05T05:02:30.194Z,19.74
2017-02-05T05:02:58.455Z,19.79
2017-02-05T05:03:26.662Z,19.87
2017-02-05T05:03:54.836Z,19.83
2017-02-05T05:04:22.801Z,19.83
2017-02-05T05:04:50.962Z,19.86
2017-02-05T05:05:19.129Z,19.82
2017-02-05T05:05:47.073Z,19.85
2017-02-05T05:06:15.334Z,19.83
2017-02-05T05:06:43.550Z,19.82
2017-02-05T05:07:11.702Z,19.82
2017-02-05T05:07:39.919Z,19.74
2017-02-05T05:08:08.150Z,19.7
2017-02-05T05:08:36.517Z,19.75
2017-02-05T05:09:04.581Z,19.74
2017-02-05T05:09:32.672Z,19.75
2017-02-05T05:10:00.740Z,19.71
2017-02-05T05:10:28.977Z,19.71
2017-02-05T05:10:57.244Z,19.79
2017-02-05T05:11:25.516Z,19.7
2017-02-05T05:11:53.628Z,19.71
2017-02-05T05:12:21.732Z,19.72
2017-02-05T05:12:49.754Z,19.74
2017-02-05T05:13:17.924Z,19.7
2017-02-05T05:13:46.134Z,19.7
2017-02-05T05:14:14.263Z,19.78
2017-02-05T05:14:42.407Z,19.75
2017-02-05T05:15:10.652Z,19.74
2017-02-05T05:15:38.883Z,19.74
2017-02-05T05:16:06.861Z,19.82
2017-02-05T05:16:34.735Z,19.82
2017-02-05T05:17:02.890Z,19.79
2017-02-05T05:17:30.924Z,19.8
2017-02-05T05:17:59.178Z,19.79
2017-02-05T05:18:27.258Z,19.83
2017-02-05T05:18:55.566Z,19.83
2017-02-05T05:19:23.718Z,19.79
2017-02-05T05:19:51.761Z,19.86
2017-02-05T05:20:20.012Z,19.83
2017-02-05T05:20:48.246Z,19.79
2017-02-05T05:21:16.242Z,19.83
2017-02-05T05:21:44.386Z,19.83
2017-02-05T05:22:12.530Z,19.79
2017-02-05T05:22:40.753Z,19.82
2017-02-05T05:23:08.792Z,19.85
2017-02-05T05:23:36.828Z,19.8
2017-02-05T05:24:05.242Z,19.8
2017-02-05T05:24:33.289Z,19.83
2017-02-05T05:25:01.555Z,19.86
2017-02-05T05:25:29.743Z,19.79
2017-02-05T05:25:57.855Z,19.83
2017-02-05T05:26:25.991Z,19.85
2017-02-05T05:26:54.037Z,19.89
2017-02-05T05:27:22.135Z,19.8
2017-02-05T05:27:50.286Z,19.87
2017-02-05T05:28:18.365Z,19.83
2017-02-05T05:28:46.676Z,19.89
2017-02-05T05:29:14.739Z,19.9
2017-02-05T05:29:42.986Z,19.87
2017-02-05T05:30:11.134Z,19.92
2017-02-05T05:30:39.299Z,19.83
2017-02-05T05:31:07.585Z,19.83
2017-02-05T05:31:35.644Z,19.82
2017-02-05T05:32:03.842Z,19.82
2017-02-05T05:32:31.965Z,19.8
2017-02-05T05:33:00.056Z,19.78
2017-02-05T05:33:28.196Z,19.85
2017-02-05T05:33:56.449Z,19.83
2017-02-05T05:34:24.515Z,19.85
2017-02-05T05:34:52.679Z,19.83
2017-02-05T05:35:20.830Z,19.85
2017-02-05T05:35:48.733Z,19.78
2017-02-05T05:36:16.887Z,19.79
2017-02-05T05:36:45.072Z,19.83
2017-02-05T05:37:13.350Z,19.79
2017-02-05T05:37:41.474Z,19.82
2017-02-05T05:38:09.580Z,19.78
2017-02-05T05:38:37.637Z,19.82
2017-02-05T05:39:06.004Z,19.85
2017-02-05T05:39:34.132Z,19.93
2017-02-05T05:40:02.385Z,19.87
2017-02-05T05:40:30.527Z,19.93
2017-02-05T05:40:58.675Z,19.89
2017-02-05T05:41:26.851Z,19.89
2017-02-05T05:41:55.091Z,19.95
2017-02-05T05:42:22.953Z,19.9
2017-02-05T05:42:51.163Z,19.97
2017-02-05T05:43:19.164Z,19.93
2017-02-05T05:43:47.317Z,19.92
2017-02-05T05:44:15.602Z,19.83
2017-02-05T05:44:43.815Z,19.93
2017-02-05T05:45:11.944Z,19.89
2017-02-05T05:45:40.036Z,19.93
2017-02-05T05:46:07.914Z,19.89
2017-02-05T05:46:36.068Z,19.9
2017-02-05T05:47:04.311Z,19.83
2017-02-05T05:47:32.383Z,19.83
2017-02-05T05:48:00.475Z,19.78
2017-02-05T05:48:28.567Z,19.86
2017-02-05T05:48:56.745Z,19.87
2017-02-05T05:49:25.124Z,19.86
2017-02-05T05:49:53.322Z,19.82
2017-02-05T05:50:21.587Z,19.74
2017-02-05T05:50:49.694Z,19.78
2017-02-05T05:51:17.853Z,19.78
2017-02-05T05:51:46.013Z,19.79
2017-02-05T05:52:14.199Z,19.75
2017-02-05T05:52:42.389Z,19.72
2017-02-05T05:53:10.331Z,19.71
2017-02-05T05:53:38.393Z,19.71
2017-02-05T05:54:06.737Z,19.7
2017-02-05T05:54:34.862Z,19.7
2017-02-05T05:55:03.040Z,19.75
2017-02-05T05:55:31.166Z,19.75
2017-02-05T05:55:59.374Z,19.7
2017-02-05T05:56:27.300Z,19.74
2017-02-05T05:56:55.534Z,19.74
2017-02-05T05:57:23.604Z,19.71
2017-02-05T05:57:51.593Z,19.75
2017-02-05T05:58:19.742Z,19.79
2017-02-05T05:58:47.943Z,19.74
2017-02-05T05:59:16.334Z,19.75
2017-02-05T05:59:44.349Z,19.7
2017-02-05T06:00:12.609Z,19.72
2017-02-05T06:00:40.618Z,19.75
2017-02-05T06:01:08.749Z,19.67
2017-02-05T06:01:36.903Z,19.74
2017-02-05T06:02:04.974Z,19.79
2017-02-05T06:02:33.327Z,19.67
2017-02-05T06:03:01.323Z,19.61
2017-02-05T06:03:29.454Z,19.64
2017-02-05T06:03:57.596Z,19.64
2017-02-05T06:04:26.051Z,19.65